createdAt,value
2023-03-11T00:00:48.817Z,3.40
2023-03-11T00:03:18.834Z,3.36
2023-03-11T00:05:47.889Z,3.28
2023-03-11T00:08:18.212Z,3.14
2023-03-11T00:10:49.113Z,3.49
2023-03-11T00:13:18.347Z,3.55
2023-03-11T00:15:50.069Z,3.61
2023-03-11T00:18:18.923Z,3.36
2023-03-11T00:20:48.362Z,3.51
2023-03-11T00:23:17.153Z,3.72
2023-03-11T00:25:47.169Z,3.67
2023-03-11T00:28:17.122Z,3.42
2023-03-11T00:30:47.728Z,3.33
2023-03-11T00:33:17.586Z,3.24
2023-03-11T00:35:46.282Z,3.22
2023-03-11T00:38:19.957Z,3.32
2023-03-11T00:40:49.233Z,3.34
2023-03-11T00:43:18.243Z,3.14
2023-03-11T00:48:43.713Z,3.49
2023-03-11T00:51:14.887Z,3.45
2023-03-11T00:53:43.646Z,3.33
2023-03-11T00:56:14.131Z,3.31
2023-03-11T00:58:44.638Z,3.48
2023-03-11T01:01:16.772Z,3.55
2023-03-11T01:03:45.783Z,3.53
2023-03-11T01:06:14.496Z,3.69
2023-03-11T01:08:42.773Z,4.02
2023-03-11T01:11:11.003Z,3.75
2023-03-11T01:13:40.512Z,3.90
2023-03-11T01:16:09.473Z,3.62
2023-03-11T01:18:39.471Z,3.71
2023-03-11T01:21:08.141Z,3.52
2023-03-11T01:23:36.428Z,3.27
2023-03-11T01:26:04.760Z,3.38
2023-03-11T01:28:33.004Z,3.39
2023-03-11T01:31:01.651Z,3.25
2023-03-11T01:33:30.299Z,3.25
2023-03-11T01:36:00.195Z,3.56
2023-03-11T01:38:28.694Z,3.39
2023-03-11T01:40:56.903Z,3.32
2023-03-11T01:43:55.820Z,3.38
2023-03-11T01:46:26.893Z,3.17
2023-03-11T01:48:57.019Z,3.09
2023-03-11T01:51:31.455Z,3.17
2023-03-11T01:54:02.380Z,3.14
2023-03-11T01:56:30.678Z,3.19
2023-03-11T01:59:00.134Z,3.03
2023-03-11T02:01:28.591Z,2.96
2023-03-11T02:03:58.002Z,2.79
2023-03-11T02:06:28.040Z,3.00
2023-03-11T02:08:57.216Z,3.03
2023-03-11T02:11:31.957Z,3.02
2023-03-11T02:14:04.735Z,3.11
2023-03-11T02:16:33.405Z,3.06
2023-03-11T02:19:12.710Z,3.02
2023-03-11T02:21:42.515Z,2.89
2023-03-11T02:24:15.545Z,2.65
2023-03-11T02:26:52.911Z,2.70
2023-03-11T02:29:22.819Z,2.73
2023-03-11T02:31:51.570Z,2.83
2023-03-11T02:34:24.908Z,2.88
2023-03-11T02:36:53.654Z,2.84
2023-03-11T02:39:31.708Z,2.86
2023-03-11T02:42:03.851Z,2.93
2023-03-11T02:44:32.600Z,2.94
2023-03-11T02:47:01.607Z,2.91
2023-03-11T02:49:31.136Z,2.80
2023-03-11T02:51:59.615Z,2.68
2023-03-11T02:54:28.051Z,2.67
2023-03-11T02:56:56.109Z,2.65
2023-03-11T02:59:25.939Z,2.50
2023-03-11T03:01:54.193Z,2.63
2023-03-11T03:04:22.614Z,2.79
2023-03-11T03:06:50.860Z,2.65
2023-03-11T03:09:19.029Z,2.54
2023-03-11T03:11:47.143Z,2.63
2023-03-11T03:14:15.497Z,2.63
2023-03-11T03:16:45.301Z,2.55
2023-03-11T03:19:13.604Z,2.54
2023-03-11T03:21:42.541Z,2.56
2023-03-11T03:24:10.694Z,2.59
2023-03-11T03:26:39.268Z,2.52
2023-03-11T03:29:07.602Z,2.59
2023-03-11T03:31:35.886Z,2.49
2023-03-11T03:34:05.732Z,2.56
2023-03-11T03:36:34.105Z,2.53
2023-03-11T03:39:02.481Z,2.55
2023-03-11T03:41:30.554Z,2.63
2023-03-11T03:43:59.243Z,2.71
2023-03-11T03:46:27.464Z,2.45
2023-03-11T03:48:55.695Z,2.87
2023-03-11T03:51:25.565Z,2.80
2023-03-11T03:53:53.691Z,2.54
2023-03-11T03:56:21.800Z,2.72
2023-03-11T03:58:50.232Z,2.57
2023-03-11T04:01:18.369Z,2.57
2023-03-11T04:03:46.606Z,2.57
2023-03-11T04:06:19.763Z,2.58
2023-03-11T04:08:49.628Z,2.59
2023-03-11T04:11:18.114Z,2.68
2023-03-11T04:13:46.768Z,2.48
2023-03-11T04:16:18.339Z,2.44
2023-03-11T04:18:47.235Z,2.42
2023-03-11T04:21:15.678Z,2.56
2023-03-11T04:23:43.845Z,2.40
2023-03-11T04:26:14.079Z,2.39
2023-03-11T04:28:42.262Z,2.30
2023-03-11T04:31:10.474Z,2.45
2023-03-11T04:33:39.346Z,2.45
2023-03-11T04:36:09.273Z,2.26
2023-03-11T04:38:38.161Z,2.41
2023-03-11T04:41:08.749Z,2.46
2023-03-11T04:43:38.407Z,2.57
2023-03-11T04:46:06.594Z,2.66
2023-03-11T04:48:34.849Z,2.44
2023-03-11T04:51:03.009Z,2.63
2023-03-11T04:53:31.248Z,2.42
2023-03-11T04:55:59.759Z,2.44
2023-03-11T04:58:29.741Z,2.45
2023-03-11T05:00:59.521Z,2.19
2023-03-11T05:03:27.917Z,2.22
2023-03-11T05:05:57.704Z,2.18
2023-03-11T05:08:26.000Z,2.10
2023-03-11T05:10:54.440Z,2.13
2023-03-11T05:13:23.072Z,2.01
2023-03-11T05:15:51.437Z,2.14
2023-03-11T05:18:21.097Z,2.20
2023-03-11T05:20:49.595Z,2.12
2023-03-11T05:23:17.677Z,2.16
2023-03-11T05:25:46.040Z,2.21
2023-03-11T05:28:14.177Z,2.19
2023-03-11T05:30:42.527Z,2.11
2023-03-11T05:33:10.788Z,2.06
2023-03-11T05:35:40.618Z,2.04
2023-03-11T05:38:08.965Z,1.32
2023-03-11T05:40:37.270Z,1.96
2023-03-11T05:43:05.333Z,1.84
2023-03-11T05:45:33.764Z,1.87
2023-03-11T05:48:02.292Z,1.90
2023-03-11T05:50:30.465Z,1.77
2023-03-11T05:53:00.047Z,1.62
2023-03-11T05:55:28.556Z,1.72
2023-03-11T05:57:56.878Z,1.74
2023-03-11T06:00:24.993Z,1.80
2023-03-11T06:02:53.505Z,1.86
2023-03-11T06:05:21.671Z,2.06
2023-03-11T06:07:49.815Z,2.14
2023-03-11T06:10:19.897Z,2.17
2023-03-11T06:12:47.989Z,2.14
2023-03-11T06:15:16.420Z,1.88
2023-03-11T06:17:44.752Z,1.60
2023-03-11T06:20:13.954Z,1.60
2023-03-11T06:22:42.143Z,1.51
2023-03-11T06:25:11.003Z,1.48
2023-03-11T06:27:41.219Z,1.48
2023-03-11T06:30:10.734Z,1.18
2023-03-11T06:32:39.214Z,1.35
2023-03-11T06:35:08.026Z,1.23
2023-03-11T06:37:37.507Z,1.18
2023-03-11T06:40:07.866Z,1.45
2023-03-11T06:42:36.190Z,1.73
2023-03-11T06:45:06.442Z,1.84
2023-03-11T06:47:35.030Z,1.86
2023-03-11T06:50:06.750Z,1.94
2023-03-11T06:52:35.349Z,1.84
2023-03-11T06:55:04.538Z,1.90
2023-03-11T06:57:32.775Z,2.01
2023-03-11T07:00:01.274Z,2.10
2023-03-11T07:02:30.779Z,2.21
2023-03-11T07:04:59.042Z,2.13
2023-03-11T07:07:27.443Z,2.20
2023-03-11T07:09:57.752Z,2.03
2023-03-11T07:12:26.656Z,2.20
2023-03-11T07:14:56.894Z,2.25
2023-03-11T07:17:25.699Z,2.35
2023-03-11T07:19:55.629Z,2.43
2023-03-11T07:22:23.942Z,2.56
2023-03-11T07:24:52.195Z,2.45
2023-03-11T07:27:20.285Z,2.35
2023-03-11T07:29:49.807Z,2.35
2023-03-11T07:32:18.326Z,2.47
2023-03-11T07:34:46.770Z,2.59
2023-03-11T07:37:16.613Z,2.75
2023-03-11T07:39:44.753Z,2.66
2023-03-11T07:42:12.917Z,2.38
2023-03-11T07:44:41.809Z,2.44
2023-03-11T07:47:09.987Z,2.35
2023-03-11T07:49:40.753Z,2.06
2023-03-11T07:52:10.047Z,1.71
2023-03-11T07:54:40.055Z,2.09
2023-03-11T07:57:13.269Z,2.22
2023-03-11T07:59:42.070Z,2.23
2023-03-11T08:02:12.068Z,2.34
2023-03-11T08:04:40.641Z,2.35
2023-03-11T08:07:08.905Z,2.61
2023-03-11T08:09:37.723Z,2.81
2023-03-11T08:12:08.176Z,2.49
2023-03-11T08:14:36.432Z,2.57
2023-03-11T08:17:05.484Z,2.80
2023-03-11T08:19:35.057Z,3.06
2023-03-11T08:22:04.309Z,3.15
2023-03-11T08:24:32.544Z,3.28
2023-03-11T08:27:00.973Z,3.36
2023-03-11T08:29:32.905Z,3.09
2023-03-11T08:32:01.132Z,2.96
2023-03-11T08:34:29.285Z,2.90
2023-03-11T08:37:00.516Z,3.09
2023-03-11T08:39:28.682Z,3.19
2023-03-11T08:41:57.094Z,3.44
2023-03-11T08:44:25.639Z,3.63
2023-03-11T08:46:55.542Z,3.69
2023-03-11T08:49:23.699Z,3.80
2023-03-11T08:51:52.340Z,3.89
2023-03-11T08:54:20.551Z,4.10
2023-03-11T08:56:49.085Z,4.16
2023-03-11T08:59:17.428Z,4.25
2023-03-11T09:01:46.939Z,4.32
2023-03-11T09:04:16.563Z,4.38
2023-03-11T09:06:45.018Z,4.49
2023-03-11T09:09:13.513Z,4.40
2023-03-11T09:11:42.063Z,4.52
2023-03-11T09:14:10.427Z,4.36
2023-03-11T09:16:41.516Z,4.47
2023-03-11T09:19:10.043Z,4.64
2023-03-11T09:21:39.799Z,4.83
2023-03-11T09:24:08.365Z,4.84
2023-03-11T09:26:39.539Z,4.59
2023-03-11T09:29:07.867Z,4.73
2023-03-11T09:31:36.333Z,4.67
2023-03-11T09:34:04.829Z,4.84
2023-03-11T09:36:33.261Z,4.90
2023-03-11T09:39:03.684Z,5.31
2023-03-11T09:41:55.306Z,5.61
2023-03-11T09:44:33.030Z,5.56
2023-03-11T09:47:29.667Z,5.95
2023-03-11T09:50:28.229Z,5.92
2023-03-11T09:53:19.018Z,6.36
2023-03-11T09:55:50.811Z,6.42
2023-03-11T09:58:36.789Z,6.77
2023-03-11T10:01:11.119Z,6.93
2023-03-11T10:03:39.980Z,6.90
2023-03-11T10:06:15.762Z,6.69
2023-03-11T10:08:48.177Z,6.63
2023-03-11T10:11:45.469Z,6.73
2023-03-11T10:14:22.650Z,6.60
2023-03-11T10:17:02.441Z,6.63
2023-03-11T10:19:42.404Z,6.56
2023-03-11T10:22:17.278Z,6.98
2023-03-11T10:25:05.158Z,7.08
2023-03-11T10:27:42.029Z,6.82
2023-03-11T10:30:20.780Z,7.25
2023-03-11T10:32:55.413Z,7.38
2023-03-11T10:35:25.890Z,7.24
2023-03-11T10:37:56.491Z,7.42
2023-03-11T10:40:30.054Z,7.24
2023-03-11T10:43:04.271Z,7.32
2023-03-11T10:45:40.079Z,7.50
2023-03-11T10:48:12.445Z,7.32
2023-03-11T10:50:47.570Z,7.15
2023-03-11T10:53:19.486Z,7.30
2023-03-11T10:55:50.160Z,7.08
2023-03-11T10:58:21.634Z,7.07
2023-03-11T11:01:02.775Z,6.60
2023-03-11T11:03:31.540Z,6.60
2023-03-11T11:06:03.444Z,6.62
2023-03-11T11:08:32.459Z,6.62
2023-03-11T11:11:03.864Z,6.84
2023-03-11T11:13:35.769Z,6.63
2023-03-11T11:16:07.365Z,6.68
2023-03-11T11:18:38.668Z,6.70
2023-03-11T11:21:10.878Z,6.83
2023-03-11T11:23:43.837Z,7.14
2023-03-11T11:26:19.154Z,7.21
2023-03-11T11:29:08.396Z,7.30
2023-03-11T11:31:38.165Z,7.40
2023-03-11T11:34:34.995Z,7.22
2023-03-11T11:37:05.541Z,7.38
2023-03-11T11:39:51.629Z,7.68
2023-03-11T11:42:21.902Z,7.56
2023-03-11T11:44:58.133Z,7.15
2023-03-11T11:47:31.406Z,7.17
2023-03-11T11:50:02.963Z,7.09
2023-03-11T11:52:36.333Z,7.39
2023-03-11T11:55:17.320Z,7.36
2023-03-11T11:57:46.048Z,7.28
2023-03-11T12:00:21.324Z,7.23
2023-03-11T12:03:07.360Z,7.70
2023-03-11T12:05:45.269Z,7.65
2023-03-11T12:08:17.764Z,7.60
2023-03-11T12:10:50.728Z,7.73
2023-03-11T12:13:52.148Z,7.30
2023-03-11T12:16:32.807Z,7.28
2023-03-11T12:19:06.142Z,7.31
2023-03-11T12:21:58.508Z,7.36
2023-03-11T12:24:50.329Z,7.17
2023-03-11T12:27:22.770Z,7.21
2023-03-11T12:29:54.110Z,7.48
2023-03-11T12:32:30.276Z,7.60
2023-03-11T12:35:04.723Z,7.43
2023-03-11T12:37:33.140Z,7.39
2023-03-11T12:40:01.373Z,7.48
2023-03-11T12:42:40.798Z,7.47
2023-03-11T12:45:50.587Z,7.55
2023-03-11T12:48:36.516Z,7.60
2023-03-11T12:51:05.941Z,7.65
2023-03-11T12:53:45.514Z,7.40
2023-03-11T12:56:30.907Z,7.58
2023-03-11T12:59:21.260Z,7.42
2023-03-11T13:01:58.977Z,6.69
2023-03-11T13:04:39.000Z,6.94
2023-03-11T13:07:47.393Z,7.33
2023-03-11T13:10:38.280Z,7.25
2023-03-11T13:13:40.412Z,7.24
2023-03-11T13:16:39.825Z,7.37
2023-03-11T13:19:36.146Z,7.50
2023-03-11T13:22:34.989Z,7.26
2023-03-11T13:25:27.927Z,7.33
2023-03-11T13:28:11.354Z,7.46
2023-03-11T13:30:46.131Z,7.39
2023-03-11T13:33:30.764Z,7.55
2023-03-11T13:36:11.644Z,7.59
2023-03-11T13:39:11.461Z,7.61
2023-03-11T13:41:44.293Z,7.36
2023-03-11T13:44:18.371Z,7.39
2023-03-11T13:46:50.903Z,7.61
2023-03-11T13:49:31.764Z,7.44
2023-03-11T13:52:03.639Z,7.92
2023-03-11T13:54:40.384Z,7.49
2023-03-11T13:57:23.239Z,8.00
2023-03-11T13:59:55.720Z,8.04
2023-03-11T14:02:26.888Z,7.81
2023-03-11T14:04:59.088Z,7.82
2023-03-11T14:07:31.958Z,8.15
2023-03-11T14:10:26.165Z,8.28
2023-03-11T14:13:08.080Z,8.10
2023-03-11T14:15:46.489Z,7.41
2023-03-11T14:18:28.468Z,7.31
2023-03-11T14:20:58.084Z,7.50
2023-03-11T14:23:32.220Z,7.16
2023-03-11T14:26:05.943Z,7.27
2023-03-11T14:28:38.851Z,7.42
2023-03-11T14:31:07.196Z,7.23
2023-03-11T14:33:35.703Z,6.94
2023-03-11T14:36:13.283Z,6.63
2023-03-11T14:38:46.417Z,6.64
2023-03-11T14:41:26.122Z,6.49
2023-03-11T14:43:56.020Z,6.61
2023-03-11T14:46:29.793Z,6.46
2023-03-11T14:49:01.527Z,6.65
2023-03-11T14:51:33.877Z,6.74
2023-03-11T14:54:09.169Z,6.84
2023-03-11T14:56:41.669Z,6.84
2023-03-11T14:59:16.654Z,6.55
2023-03-11T15:01:48.470Z,6.91
2023-03-11T15:04:32.965Z,6.45
2023-03-11T15:07:04.868Z,6.62
2023-03-11T15:09:35.677Z,6.76
2023-03-11T15:12:07.818Z,6.57
2023-03-11T15:14:38.477Z,6.47
2023-03-11T15:17:35.355Z,6.65
2023-03-11T15:20:25.702Z,6.64
2023-03-11T15:23:00.957Z,6.87
2023-03-11T15:25:35.903Z,6.93
2023-03-11T15:28:22.442Z,7.05
2023-03-11T15:30:51.098Z,6.94
2023-03-11T15:33:28.444Z,6.86
2023-03-11T15:35:57.314Z,7.00
2023-03-11T15:38:32.743Z,6.94
2023-03-11T15:41:04.456Z,6.86
2023-03-11T15:43:35.119Z,7.15
2023-03-11T15:46:04.410Z,7.08
2023-03-11T15:48:32.754Z,7.16
2023-03-11T15:51:01.933Z,7.15
2023-03-11T15:53:31.680Z,7.24
2023-03-11T15:56:07.831Z,7.01
2023-03-11T15:58:37.906Z,6.95
2023-03-11T16:01:09.140Z,6.89
2023-03-11T16:03:47.607Z,6.85
2023-03-11T16:06:16.087Z,6.94
2023-03-11T16:08:45.731Z,7.13
2023-03-11T16:12:44.628Z,7.03
2023-03-11T16:15:22.281Z,7.18
2023-03-11T16:17:51.591Z,6.91
2023-03-11T16:20:21.152Z,6.83
2023-03-11T16:22:51.625Z,6.59
2023-03-11T16:25:23.827Z,6.78
2023-03-11T16:27:54.472Z,6.57
2023-03-11T16:30:29.299Z,7.01
2023-03-11T16:32:58.830Z,6.71
2023-03-11T16:35:27.984Z,6.78
2023-03-11T16:37:57.244Z,6.97
2023-03-11T16:40:28.479Z,6.48
2023-03-11T16:42:59.991Z,6.79
2023-03-11T16:45:30.212Z,7.02
2023-03-11T16:47:58.863Z,6.90
2023-03-11T16:50:28.813Z,6.60
2023-03-11T16:52:58.941Z,6.92
2023-03-11T16:55:29.686Z,6.94
2023-03-11T16:57:58.869Z,6.59
2023-03-11T17:00:28.178Z,6.74
2023-03-11T17:02:58.554Z,6.85
2023-03-11T17:05:29.146Z,6.64
2023-03-11T17:08:01.357Z,6.31
2023-03-11T17:10:30.120Z,6.46
2023-03-11T17:12:58.611Z,6.69
2023-03-11T17:15:27.094Z,6.85
2023-03-11T17:17:55.943Z,6.83
2023-03-11T17:20:27.142Z,6.52
2023-03-11T17:22:55.706Z,6.48
2023-03-11T17:25:24.774Z,6.42
2023-03-11T17:27:53.460Z,6.33
2023-03-11T17:30:35.870Z,6.22
2023-03-11T17:33:05.972Z,6.37
2023-03-11T17:35:36.647Z,6.29
2023-03-11T17:38:05.920Z,5.69
2023-03-11T17:40:37.619Z,5.88
2023-03-11T17:43:07.884Z,6.03
2023-03-11T17:45:40.297Z,5.06
2023-03-11T17:48:14.365Z,5.94
2023-03-11T17:50:44.067Z,5.21
2023-03-11T17:53:12.840Z,6.00
2023-03-11T17:55:42.328Z,6.16
2023-03-11T17:58:10.923Z,6.16
2023-03-11T18:00:39.505Z,6.13
2023-03-11T18:03:07.957Z,6.07
2023-03-11T18:05:37.863Z,6.25
2023-03-11T18:08:08.131Z,5.93
2023-03-11T18:10:38.738Z,6.43
2023-03-11T18:13:10.681Z,5.98
2023-03-11T18:15:38.908Z,5.99
2023-03-11T18:18:07.356Z,5.87
2023-03-11T18:20:38.061Z,6.00
2023-03-11T18:23:08.573Z,6.28
2023-03-11T18:25:37.073Z,5.93
2023-03-11T18:28:06.194Z,6.06
2023-03-11T18:30:37.808Z,6.19
2023-03-11T18:33:06.733Z,6.39
2023-03-11T18:35:35.627Z,6.17
2023-03-11T18:38:03.969Z,5.86
2023-03-11T18:40:34.469Z,5.95
2023-03-11T18:43:03.365Z,5.84
2023-03-11T18:45:32.086Z,6.14
2023-03-11T18:48:00.534Z,5.73
2023-03-11T18:50:30.753Z,6.00
2023-03-11T18:53:01.040Z,6.16
2023-03-11T18:55:29.450Z,5.70
2023-03-11T18:57:59.357Z,5.82
2023-03-11T19:00:29.492Z,5.83
2023-03-11T19:02:58.425Z,5.91
2023-03-11T19:05:29.631Z,5.67
2023-03-11T19:07:58.378Z,5.94
2023-03-11T19:10:27.164Z,6.04
2023-03-11T19:12:55.734Z,6.00
2023-03-11T19:15:30.304Z,5.85
2023-03-11T19:18:06.899Z,5.86
2023-03-11T19:20:39.420Z,5.39
2023-03-11T19:23:09.692Z,5.74
2023-03-11T19:25:50.629Z,5.81
2023-03-11T19:28:26.564Z,5.95
2023-03-11T19:31:18.705Z,5.70
2023-03-11T19:33:52.022Z,5.42
2023-03-11T19:36:20.276Z,5.27
2023-03-11T19:38:49.302Z,5.56
2023-03-11T19:41:21.743Z,5.23
2023-03-11T19:43:50.807Z,5.54
2023-03-11T19:46:35.385Z,5.72
2023-03-11T19:49:05.314Z,5.77
2023-03-11T19:51:48.562Z,5.47
2023-03-11T19:54:18.346Z,5.24
2023-03-11T19:56:48.397Z,5.41
2023-03-11T19:59:19.853Z,5.58
2023-03-11T20:01:49.764Z,5.82
2023-03-11T20:04:20.661Z,5.73
2023-03-11T20:06:49.241Z,5.61
2023-03-11T20:09:20.669Z,5.65
2023-03-11T20:11:48.972Z,5.43
2023-03-11T20:14:17.349Z,5.31
2023-03-11T20:16:55.497Z,5.34
2023-03-11T20:19:25.862Z,5.68
2023-03-11T20:21:54.171Z,5.52
2023-03-11T20:24:23.093Z,5.78
2023-03-11T20:26:56.966Z,5.57
2023-03-11T20:29:30.237Z,5.55
2023-03-11T20:31:59.433Z,5.23
2023-03-11T20:34:29.464Z,5.65
2023-03-11T20:37:00.270Z,5.61
2023-03-11T20:39:30.874Z,5.75
2023-03-11T20:41:59.085Z,5.44
2023-03-11T20:44:28.057Z,5.70
2023-03-11T20:46:57.207Z,5.63
2023-03-11T20:49:26.400Z,5.41
2023-03-11T20:51:56.498Z,5.58
2023-03-11T20:54:25.027Z,5.74
2023-03-11T20:56:53.373Z,5.44
2023-03-11T20:59:21.849Z,5.44
2023-03-11T21:01:50.504Z,5.47
2023-03-11T21:04:19.789Z,5.43
2023-03-11T21:06:52.821Z,5.62
2023-03-11T21:09:23.357Z,5.55
2023-03-11T21:11:52.892Z,4.97
2023-03-11T21:14:21.335Z,4.63
2023-03-11T21:16:49.863Z,5.24
2023-03-11T21:19:18.757Z,5.23
2023-03-11T21:21:47.309Z,5.02
2023-03-11T21:24:15.883Z,5.08
2023-03-11T21:26:45.862Z,5.17
2023-03-11T21:29:14.333Z,4.73
2023-03-11T21:31:43.008Z,5.18
2023-03-11T21:34:12.691Z,5.23
2023-03-11T21:36:41.319Z,5.30
2023-03-11T21:39:10.054Z,5.34
2023-03-11T21:41:38.779Z,5.08
2023-03-11T21:44:08.998Z,5.16
2023-03-11T21:46:37.664Z,4.91
2023-03-11T21:49:05.916Z,4.70
2023-03-11T21:51:34.299Z,4.79
2023-03-11T21:54:03.941Z,4.73
2023-03-11T21:56:32.198Z,4.70
2023-03-11T21:59:00.925Z,4.65
2023-03-11T22:01:31.354Z,4.74
2023-03-11T22:04:00.294Z,4.79
2023-03-11T22:06:31.164Z,4.31
2023-03-11T22:08:59.724Z,4.70
2023-03-11T22:11:31.565Z,4.89
2023-03-11T22:14:01.295Z,4.77
2023-03-11T22:16:31.431Z,5.15
2023-03-11T22:19:02.488Z,4.92
2023-03-11T22:21:31.658Z,5.00
2023-03-11T22:24:02.040Z,5.05
2023-03-11T22:26:30.438Z,5.06
2023-03-11T22:28:58.782Z,4.97
2023-03-11T22:31:27.102Z,4.85
2023-03-11T22:33:58.842Z,4.89
2023-03-11T22:36:30.619Z,5.04
2023-03-11T22:38:58.957Z,4.70
2023-03-11T22:41:27.289Z,5.01
2023-03-11T22:43:55.815Z,5.03
2023-03-11T22:46:25.482Z,5.02
2023-03-11T22:48:54.078Z,4.91
2023-03-11T22:51:24.402Z,4.67
2023-03-11T22:53:53.022Z,4.80
2023-03-11T22:56:21.245Z,4.84
2023-03-11T22:58:49.462Z,4.88
2023-03-11T23:01:17.851Z,4.65
2023-03-11T23:03:46.484Z,4.67
2023-03-11T23:06:19.230Z,4.56
2023-03-11T23:08:49.615Z,4.59
2023-03-11T23:11:21.340Z,4.43
2023-03-11T23:13:50.306Z,4.67
2023-03-11T23:16:20.556Z,4.41
2023-03-11T23:18:51.181Z,4.41
2023-03-11T23:21:22.250Z,4.39
2023-03-11T23:23:52.519Z,4.40
2023-03-11T23:26:22.394Z,4.19
2023-03-11T23:28:52.351Z,4.20
2023-03-11T23:31:25.629Z,4.50
2023-03-11T23:33:54.305Z,4.46
2023-03-11T23:36:24.617Z,4.40
2023-03-11T23:38:54.676Z,4.18
2023-03-11T23:41:23.781Z,4.35
2023-03-11T23:43:52.344Z,4.43
2023-03-11T23:46:20.966Z,4.39
2023-03-11T23:48:49.202Z,4.43
2023-03-11T23:51:18.008Z,4.35
2023-03-11T23:53:46.821Z,4.50
2023-03-11T23:56:18.699Z,4.48
2023-03-11T23:58:48.359Z,4.23
